Aérodrome :
LOGIN :

S'inscrire | Disclaimer

   EN    FR    IT 

 










Légende :    VFR   VFR Marginal   IFR   IFR Intensif   IFR Très Intensif
Visi : 
Plafond : 
>= 8 km
>= 3000ft
5 à 8 km
1000 à 3000 ft
1500m à 5 km
500 à 1000 ft
800 à 1500m
200 à 500 ft
< 800m
< 200 ft
Symboles :   Orages  Brouillard  Fortes neiges  Fortes précipitations  Vent > 20 kt
SIGMETs :   Divers  Orages  Givrage  Turbulence  Onde Orograph.  Cendres Volcan.







- Altitude de l'aérodrome : 302 ft
- Code IATA : CGN


EDDK - Cologne Bonn

DERNIER METAR :
  • 150920Z 13007KT 9999 SCT026 BKN030 03/01 Q0995 NOSIG

METARs EXPIRÉS :
  • 150850Z 14007KT 9999 SCT028 BKN031 03/01 Q0995 NOSIG
  • 150820Z 13006KT 9999 FEW023 BKN031 03/01 Q0995 NOSIG
  • 150750Z 14006KT 9999 FEW023 BKN030 03/01 Q0994 NOSIG
  • 150720Z 14006KT 9999 FEW018 BKN024 03/01 Q0994 NOSIG

TAF TAF EDDK
Valide du 15 à 06h jusqu'au 16 à 12h UTC


150500Z 1506/1612 26006KT 9999 SCT015 BKN020
BECMG 1506/1509 16005KT
PROB30
TEMPO 1508/1512 4000 SHRAGS BKN012CB
BECMG 1514/1516 VRB03KT
TEMPO 1517/1522 BKN012
BECMG 1522/1524 BKN012
TEMPO 1522/1612 BKN007
TEMPO 1600/1610 4000 -RA BR
Pas de NOTAMs connus pour ce terrain.



MET'MAP, la Météo Aéronautique d'un coup d'oeil ! - Copyright ORBIFLY Décembre 2007 - Disclaimer

ORBIFLY MET'MAP TEAM :

Programmation & Développement : Alexandra Zaïnal
Conception & Développement : Baudouin d'Aumeries
Co-Programmation & Développement : Marc-Olivier Méhu
Soutien technique & logistique : Manuel Goepfert

Contact : metmap@orbifly.com




SOURCES & CREDITS :

   NOAA